createdAt,value
2023-01-11T00:01:20.558Z,13.90
2023-01-11T00:04:00.100Z,13.50
2023-01-11T00:06:27.621Z,13.30
2023-01-11T00:08:56.482Z,12.57
2023-01-11T00:11:23.464Z,13.90
2023-01-11T00:13:51.016Z,13.40
2023-01-11T00:16:19.444Z,13.23
2023-01-11T00:18:46.888Z,12.88
2023-01-11T00:21:15.131Z,14.20
2023-01-11T00:23:43.415Z,12.52
2023-01-11T00:26:13.976Z,12.98
2023-01-11T00:28:41.391Z,12.93
2023-01-11T00:31:09.882Z,14.60
2023-01-11T00:33:37.329Z,13.27
2023-01-11T00:36:05.879Z,13.57
2023-01-11T00:38:46.981Z,12.77
2023-01-11T00:41:34.367Z,13.65
2023-01-11T00:44:20.033Z,13.48
2023-01-11T00:47:05.747Z,12.00
2023-01-11T00:49:33.245Z,12.20
2023-01-11T00:52:00.936Z,12.57
2023-01-11T00:54:28.107Z,11.73
2023-01-11T00:56:55.464Z,12.95
2023-01-11T00:59:23.084Z,13.35
2023-01-11T01:01:52.547Z,11.65
2023-01-11T01:04:20.105Z,12.07
2023-01-11T01:06:47.504Z,10.98
2023-01-11T01:09:15.570Z,12.65
2023-01-11T01:11:42.889Z,11.95
2023-01-11T01:14:31.119Z,13.10
2023-01-11T01:17:04.667Z,11.05
2023-01-11T01:22:06.487Z,12.15
2023-01-11T01:24:35.020Z,10.63
2023-01-11T01:27:02.379Z,10.32
2023-01-11T01:29:29.892Z,11.10
2023-01-11T01:31:57.397Z,12.30
2023-01-11T01:34:24.808Z,12.27
2023-01-11T01:36:52.283Z,11.93
2023-01-11T01:39:19.733Z,15.15
2023-01-11T01:41:47.161Z,15.75
2023-01-11T01:44:51.563Z,14.68
2023-01-11T01:47:22.401Z,16.25
2023-01-11T01:49:49.607Z,13.43
2023-01-11T01:52:17.650Z,13.32
2023-01-11T01:54:48.533Z,13.95
2023-01-11T01:57:24.148Z,13.75
2023-01-11T01:59:53.883Z,13.25
2023-01-11T02:02:24.403Z,12.95
2023-01-11T02:04:53.457Z,12.40
2023-01-11T02:07:29.829Z,12.38
2023-01-11T02:10:10.485Z,12.30
2023-01-11T02:12:57.781Z,11.48
2023-01-11T02:15:25.213Z,11.07
2023-01-11T02:17:52.549Z,11.50
2023-01-11T02:20:31.997Z,11.15
2023-01-11T02:23:20.681Z,11.63
2023-01-11T02:26:13.089Z,10.75
2023-01-11T02:28:46.528Z,10.88
2023-01-11T02:34:23.136Z,11.18
2023-01-11T02:37:18.088Z,65.95
2023-01-11T02:40:18.330Z,62.72
2023-01-11T02:43:07.160Z,11.82
2023-01-11T02:45:35.352Z,11.80
2023-01-11T02:48:12.557Z,11.15
2023-01-11T02:51:11.307Z,12.32
2023-01-11T02:53:44.817Z,12.07
2023-01-11T02:58:45.714Z,13.23
2023-01-11T03:01:15.623Z,19.85
2023-01-11T03:03:44.982Z,14.30
2023-01-11T03:06:17.456Z,11.05
2023-01-11T03:09:26.660Z,10.73
2023-01-11T03:12:29.263Z,11.07
2023-01-11T03:15:11.253Z,10.25
2023-01-11T03:17:57.766Z,11.80
2023-01-11T03:20:34.835Z,10.82
2023-01-11T03:23:19.419Z,11.25
2023-01-11T03:25:46.849Z,11.07
2023-01-11T03:28:38.382Z,10.95
2023-01-11T03:31:13.284Z,10.77
2023-01-11T03:33:53.851Z,11.20
2023-01-11T03:36:29.360Z,10.77
2023-01-11T03:39:17.618Z,11.93
2023-01-11T03:41:46.333Z,11.35
2023-01-11T03:44:17.284Z,13.30
2023-01-11T03:46:48.987Z,11.27
2023-01-11T03:49:45.765Z,11.13
2023-01-11T03:52:16.947Z,11.57
2023-01-11T03:54:45.758Z,13.18
2023-01-11T03:57:21.009Z,15.00
2023-01-11T03:59:50.143Z,13.35
2023-01-11T04:02:28.387Z,12.88
2023-01-11T04:04:55.609Z,13.90
2023-01-11T04:07:23.120Z,14.10
2023-01-11T04:09:50.576Z,14.40
2023-01-11T04:12:17.922Z,14.70
2023-01-11T04:14:45.437Z,13.75
2023-01-11T04:17:12.797Z,14.18
2023-01-11T04:19:41.427Z,13.63
2023-01-11T04:22:09.803Z,12.55
2023-01-11T04:24:37.294Z,14.15
2023-01-11T04:27:04.345Z,15.30
2023-01-11T04:29:32.763Z,16.33
2023-01-11T04:32:00.161Z,16.50
2023-01-11T04:34:27.613Z,16.55
2023-01-11T04:36:55.135Z,14.93
2023-01-11T04:39:23.642Z,12.85
2023-01-11T04:42:09.212Z,13.05
2023-01-11T04:44:36.381Z,11.73
2023-01-11T04:47:03.868Z,13.20
2023-01-11T04:49:31.376Z,12.88
2023-01-11T04:51:58.767Z,13.45
2023-01-11T04:54:26.319Z,15.50
2023-01-11T04:56:53.696Z,13.48
2023-01-11T04:59:21.180Z,15.57
2023-01-11T05:01:48.499Z,15.13
2023-01-11T05:04:15.766Z,12.40
2023-01-11T05:06:44.055Z,12.15
2023-01-11T05:09:17.225Z,12.38
2023-01-11T05:11:45.080Z,12.32
2023-01-11T05:14:14.734Z,13.15
2023-01-11T05:16:42.905Z,14.48
2023-01-11T05:19:11.562Z,15.25
2023-01-11T05:21:42.095Z,15.88
2023-01-11T05:24:13.518Z,16.30
2023-01-11T05:26:43.376Z,15.57
2023-01-11T05:29:13.566Z,19.17
2023-01-11T05:31:41.390Z,19.65
2023-01-11T05:34:12.622Z,21.75
2023-01-11T05:36:40.400Z,21.33
2023-01-11T05:39:07.985Z,23.33
2023-01-11T05:41:35.763Z,21.52
2023-01-11T05:44:23.200Z,23.73
2023-01-11T05:46:50.502Z,22.52
2023-01-11T05:49:17.949Z,23.05
2023-01-11T05:51:46.461Z,21.58
2023-01-11T05:54:19.971Z,22.15
2023-01-11T05:56:48.500Z,22.75
2023-01-11T05:59:16.019Z,22.35
2023-01-11T06:01:43.472Z,22.88
2023-01-11T06:04:11.099Z,21.65
2023-01-11T06:06:44.565Z,22.27
2023-01-11T06:09:11.977Z,22.08
2023-01-11T06:11:39.412Z,22.60
2023-01-11T06:14:08.887Z,21.00
2023-01-11T06:16:36.387Z,21.70
2023-01-11T06:19:04.038Z,21.15
2023-01-11T06:21:31.310Z,21.55
2023-01-11T06:23:58.685Z,21.13
2023-01-11T06:26:26.149Z,20.90
2023-01-11T06:28:53.829Z,19.88
2023-01-11T06:31:21.123Z,19.55
2023-01-11T06:33:48.607Z,19.55
2023-01-11T06:36:16.318Z,18.02
2023-01-11T06:38:45.066Z,23.60
2023-01-11T06:41:13.160Z,52.55
2023-01-11T06:43:42.480Z,37.97
2023-01-11T06:46:17.497Z,25.27
2023-01-11T06:48:45.583Z,26.77
2023-01-11T06:51:14.414Z,30.45
2023-01-11T06:53:42.823Z,50.08
2023-01-11T06:56:23.789Z,43.53
2023-01-11T06:58:52.528Z,46.70
2023-01-11T07:01:20.336Z,37.45
2023-01-11T07:03:47.839Z,34.85
2023-01-11T07:06:15.268Z,26.48
2023-01-11T07:08:43.735Z,25.70
2023-01-11T07:11:12.367Z,24.08
2023-01-11T07:13:39.609Z,24.77
2023-01-11T07:16:07.308Z,22.55
2023-01-11T07:18:37.624Z,21.58
2023-01-11T07:21:07.080Z,23.83
2023-01-11T07:23:34.680Z,22.00
2023-01-11T07:26:06.133Z,21.77
2023-01-11T07:28:34.596Z,19.52
2023-01-11T07:31:02.114Z,19.30
2023-01-11T07:33:29.573Z,19.27
2023-01-11T07:35:58.457Z,19.30
2023-01-11T07:38:25.963Z,16.40
2023-01-11T07:40:53.400Z,13.95
2023-01-11T07:43:23.649Z,14.50
2023-01-11T07:45:57.949Z,13.07
2023-01-11T07:48:28.149Z,12.85
2023-01-11T07:50:57.548Z,12.90
2023-01-11T07:53:26.625Z,11.55
2023-01-11T07:55:56.665Z,11.15
2023-01-11T07:58:24.481Z,10.35
2023-01-11T08:00:52.051Z,9.77
2023-01-11T08:03:19.246Z,9.00
2023-01-11T08:05:54.073Z,8.18
2023-01-11T08:08:21.932Z,8.25
2023-01-11T08:11:09.494Z,7.95
2023-01-11T08:13:55.410Z,8.57
2023-01-11T08:16:22.942Z,7.43
2023-01-11T08:18:53.518Z,7.60
2023-01-11T08:21:21.648Z,7.05
2023-01-11T08:23:48.849Z,6.93
2023-01-11T08:26:18.270Z,7.78
2023-01-11T08:28:47.161Z,6.57
2023-01-11T08:31:14.902Z,6.15
2023-01-11T08:33:42.556Z,6.45
2023-01-11T08:36:12.685Z,5.43
2023-01-11T08:38:40.546Z,5.85
2023-01-11T08:41:11.293Z,5.47
2023-01-11T08:43:42.771Z,5.88
2023-01-11T08:46:11.100Z,5.03
2023-01-11T08:48:38.715Z,5.20
2023-01-11T08:51:06.323Z,4.88
2023-01-11T08:53:35.827Z,4.35
2023-01-11T08:56:04.209Z,4.28
2023-01-11T08:58:31.646Z,4.03
2023-01-11T09:01:00.373Z,3.03
2023-01-11T09:03:31.182Z,4.03
2023-01-11T09:05:58.656Z,3.90
2023-01-11T09:08:27.325Z,3.40
2023-01-11T09:10:56.957Z,3.50
2023-01-11T09:13:24.528Z,3.95
2023-01-11T09:15:56.189Z,3.83
2023-01-11T09:18:30.774Z,3.50
2023-01-11T09:20:57.826Z,4.05
2023-01-11T09:23:32.200Z,3.80
2023-01-11T09:25:59.766Z,3.55
2023-01-11T09:28:27.178Z,3.58
2023-01-11T09:30:54.647Z,3.33
2023-01-11T09:33:22.080Z,3.28
2023-01-11T09:35:52.185Z,3.33
2023-01-11T09:38:20.028Z,3.17
2023-01-11T09:41:03.908Z,2.65
2023-01-11T09:46:08.144Z,3.13
2023-01-11T09:48:55.271Z,2.80
2023-01-11T09:51:34.147Z,3.28
2023-01-11T09:54:06.138Z,2.85
2023-01-11T09:56:46.712Z,1.90
2023-01-11T09:59:51.012Z,3.10
2023-01-11T10:02:51.772Z,2.20
2023-01-11T10:05:30.073Z,2.83
2023-01-11T10:18:28.166Z,3.60
2023-01-11T10:18:29.799Z,2.13
2023-01-11T10:21:13.590Z,3.72
2023-01-11T10:23:55.200Z,3.42
2023-01-11T10:26:32.512Z,3.50
2023-01-11T10:29:57.861Z,3.80
2023-01-11T10:32:50.438Z,3.33
2023-01-11T10:35:59.158Z,3.47
2023-01-11T10:38:59.535Z,3.05
2023-01-11T10:41:38.055Z,3.15
2023-01-11T10:44:32.039Z,3.20
2023-01-11T10:47:02.129Z,3.25
2023-01-11T10:49:57.317Z,2.92
2023-01-11T10:52:33.704Z,3.42
2023-01-11T10:55:13.175Z,2.42
2023-01-11T10:57:59.835Z,4.07
2023-01-11T11:00:49.016Z,2.90
2023-01-11T11:03:24.649Z,3.40
2023-01-11T11:06:30.690Z,3.30
2023-01-11T11:09:22.931Z,3.25
2023-01-11T11:12:10.961Z,3.55
2023-01-11T11:14:53.191Z,3.25
2023-01-11T11:17:24.444Z,3.10
2023-01-11T11:19:53.745Z,3.13
2023-01-11T11:22:21.345Z,2.92
2023-01-11T11:25:02.828Z,3.33
2023-01-11T11:27:51.698Z,2.78
2023-01-11T11:30:57.090Z,3.00
2023-01-11T11:33:39.124Z,3.08
2023-01-11T11:36:12.564Z,3.42
2023-01-11T11:39:05.707Z,3.33
2023-01-11T11:41:50.135Z,3.30
2023-01-11T11:44:28.784Z,3.00
2023-01-11T11:47:05.634Z,2.97
2023-01-11T11:49:37.279Z,3.55
2023-01-11T11:52:05.839Z,2.78
2023-01-11T11:54:41.703Z,3.22
2023-01-11T11:57:34.024Z,3.13
2023-01-11T12:00:26.378Z,3.13
2023-01-11T12:03:08.020Z,2.95
2023-01-11T12:05:35.272Z,3.63
2023-01-11T12:08:03.471Z,3.03
2023-01-11T12:10:36.741Z,3.42
2023-01-11T12:13:29.695Z,3.78
2023-01-11T12:16:06.347Z,3.35
2023-01-11T12:18:43.672Z,3.22
2023-01-11T12:21:26.236Z,3.40
2023-01-11T12:24:18.638Z,3.08
2023-01-11T12:27:20.939Z,3.65
2023-01-11T12:30:25.409Z,3.40
2023-01-11T12:35:45.723Z,3.28
2023-01-11T12:38:16.161Z,3.65
2023-01-11T12:41:10.066Z,3.30
2023-01-11T12:43:46.149Z,3.67
2023-01-11T12:46:24.164Z,3.30
2023-01-11T12:49:04.384Z,3.15
2023-01-11T12:52:09.113Z,3.28
2023-01-11T12:54:55.623Z,3.25
2023-01-11T12:58:02.125Z,3.40
2023-01-11T13:00:38.583Z,3.30
2023-01-11T13:03:36.955Z,3.25
2023-01-11T13:06:15.454Z,3.30
2023-01-11T13:09:09.837Z,2.92
2023-01-11T13:11:46.115Z,2.85
2023-01-11T13:14:43.786Z,3.00
2023-01-11T13:17:28.472Z,3.22
2023-01-11T13:20:28.728Z,3.47
2023-01-11T13:23:19.831Z,3.63
2023-01-11T13:25:51.149Z,3.38
2023-01-11T13:28:35.598Z,2.95
2023-01-11T13:31:07.778Z,3.22
2023-01-11T13:33:38.368Z,3.25
2023-01-11T13:36:23.707Z,3.80
2023-01-11T13:39:28.844Z,3.40
2023-01-11T13:42:00.856Z,3.60
2023-01-11T13:44:31.541Z,3.67
2023-01-11T13:47:37.112Z,3.15
2023-01-11T13:50:22.297Z,3.05
2023-01-11T13:53:10.122Z,3.58
2023-01-11T13:55:40.504Z,3.58
2023-01-11T13:58:36.859Z,3.72
2023-01-11T14:01:15.480Z,3.78
2023-01-11T14:03:54.379Z,3.33
2023-01-11T14:06:43.005Z,3.45
2023-01-11T14:09:22.277Z,3.30
2023-01-11T14:12:00.573Z,3.35
2023-01-11T14:14:49.550Z,3.90
2023-01-11T14:18:14.147Z,3.60
2023-01-11T14:20:49.541Z,3.53
2023-01-11T14:23:32.838Z,3.30
2023-01-11T14:26:17.782Z,3.28
2023-01-11T14:28:54.578Z,3.20
2023-01-11T14:31:40.233Z,3.30
2023-01-11T14:34:33.037Z,2.88
2023-01-11T14:37:34.268Z,4.13
2023-01-11T14:40:43.076Z,4.40
2023-01-11T14:43:42.638Z,3.63
2023-01-11T14:46:45.956Z,3.95
2023-01-11T14:49:35.807Z,4.20
2023-01-11T14:52:38.484Z,3.92
2023-01-11T14:55:19.301Z,3.95
2023-01-11T14:58:17.717Z,4.20
2023-01-11T15:00:45.147Z,3.97
2023-01-11T15:03:19.965Z,3.53
2023-01-11T15:06:23.775Z,4.40
2023-01-11T15:08:55.594Z,4.40
2023-01-11T15:11:34.782Z,4.30
2023-01-11T15:14:22.036Z,4.82
2023-01-11T15:17:15.769Z,4.20
2023-01-11T15:19:44.651Z,4.60
2023-01-11T15:22:33.445Z,4.50
2023-01-11T15:25:17.985Z,4.57
2023-01-11T15:27:45.674Z,4.70
2023-01-11T15:30:31.229Z,5.60
2023-01-11T15:33:21.039Z,5.70
2023-01-11T15:35:59.510Z,5.65
2023-01-11T15:39:03.681Z,6.80
2023-01-11T15:42:12.699Z,5.03
2023-01-11T15:45:15.265Z,6.32
2023-01-11T15:48:20.145Z,6.03
2023-01-11T15:51:05.910Z,7.25
2023-01-11T15:53:59.171Z,6.38
2023-01-11T15:57:06.907Z,6.80
2023-01-11T16:00:10.529Z,6.55
2023-01-11T16:02:37.479Z,7.38
2023-01-11T16:05:39.911Z,6.20
2023-01-11T16:08:32.453Z,6.40
2023-01-11T16:11:42.457Z,6.78
2023-01-11T16:14:19.228Z,7.13
2023-01-11T16:16:52.981Z,6.75
2023-01-11T16:19:26.727Z,7.55
2023-01-11T16:21:59.391Z,7.22
2023-01-11T16:24:29.816Z,7.87
2023-01-11T16:27:00.741Z,7.65
2023-01-11T16:29:35.256Z,7.82
2023-01-11T16:32:08.638Z,7.50
2023-01-11T16:34:42.698Z,7.05
2023-01-11T16:37:39.370Z,6.75
2023-01-11T16:40:21.962Z,7.45
2023-01-11T16:43:07.317Z,7.50
2023-01-11T16:45:46.303Z,7.68
2023-01-11T16:48:20.890Z,6.93
2023-01-11T16:51:07.631Z,7.32
2023-01-11T16:53:42.961Z,7.32
2023-01-11T16:56:24.024Z,7.28
2023-01-11T16:59:16.774Z,6.80
2023-01-11T17:01:56.599Z,7.75
2023-01-11T17:04:54.396Z,6.72
2023-01-11T17:07:24.772Z,7.57
2023-01-11T17:09:53.057Z,7.25
2023-01-11T17:12:24.629Z,7.35
2023-01-11T17:15:04.844Z,7.70
2023-01-11T17:17:37.432Z,8.35
2023-01-11T17:20:16.053Z,8.03
2023-01-11T17:22:44.774Z,9.18
2023-01-11T17:25:37.286Z,9.23
2023-01-11T17:28:20.999Z,8.55
2023-01-11T17:30:52.197Z,7.90
2023-01-11T17:33:32.011Z,8.15
2023-01-11T17:36:01.692Z,9.05
2023-01-11T17:38:30.419Z,8.93
2023-01-11T17:40:58.950Z,8.50
2023-01-11T17:43:48.206Z,8.45
2023-01-11T17:46:23.306Z,8.75
2023-01-11T17:48:57.390Z,8.45
2023-01-11T17:51:33.926Z,9.10
2023-01-11T17:54:01.431Z,8.93
2023-01-11T17:56:42.120Z,8.73
2023-01-11T17:59:11.970Z,9.00
2023-01-11T18:01:40.035Z,8.38
2023-01-11T18:04:19.252Z,9.15
2023-01-11T18:07:04.948Z,8.85
2023-01-11T18:09:34.251Z,8.65
2023-01-11T18:12:23.836Z,7.85
2023-01-11T18:14:53.031Z,11.98
2023-01-11T18:17:39.637Z,11.55
2023-01-11T18:20:29.815Z,12.18
2023-01-11T18:23:16.797Z,11.45
2023-01-11T18:25:46.791Z,10.63
2023-01-11T18:28:38.678Z,11.75
2023-01-11T18:31:08.024Z,10.75
2023-01-11T18:33:35.812Z,10.88
2023-01-11T18:36:04.870Z,9.27
2023-01-11T18:38:36.332Z,10.15
2023-01-11T18:41:27.539Z,9.45
2023-01-11T18:43:57.174Z,9.40
2023-01-11T18:46:25.045Z,9.05
2023-01-11T18:48:52.787Z,8.90
2023-01-11T18:51:39.736Z,7.88
2023-01-11T18:54:16.349Z,7.00
2023-01-11T18:56:44.303Z,8.05
2023-01-11T18:59:11.858Z,7.55
2023-01-11T19:01:54.510Z,7.00
2023-01-11T19:04:27.758Z,7.53
2023-01-11T19:06:55.360Z,6.82
2023-01-11T19:09:23.125Z,6.93
2023-01-11T19:11:53.088Z,7.28
2023-01-11T19:14:21.779Z,7.10
2023-01-11T19:16:49.485Z,6.45
2023-01-11T19:19:17.041Z,6.45
2023-01-11T19:21:45.415Z,6.38
2023-01-11T19:24:19.082Z,7.68
2023-01-11T19:29:19.500Z,8.30
2023-01-11T19:31:51.035Z,8.93
2023-01-11T19:34:19.503Z,9.73
2023-01-11T19:36:47.226Z,8.55
2023-01-11T19:39:14.933Z,7.22
2023-01-11T19:41:55.518Z,7.15
2023-01-11T19:44:25.512Z,11.75
2023-01-11T19:47:09.566Z,10.65
2023-01-11T19:49:38.351Z,12.70
2023-01-11T19:52:13.238Z,21.05
2023-01-11T19:54:46.956Z,26.48
2023-01-11T19:57:23.223Z,12.43
2023-01-11T19:59:51.608Z,10.45
2023-01-11T20:02:21.620Z,10.70
2023-01-11T20:04:49.205Z,9.77
2023-01-11T20:07:19.472Z,25.15
2023-01-11T20:09:46.974Z,20.60
2023-01-11T20:12:18.759Z,20.83
2023-01-11T20:14:47.889Z,15.68
2023-01-11T20:17:21.352Z,13.15
2023-01-11T20:19:54.902Z,12.85
2023-01-11T20:24:52.648Z,14.95
2023-01-11T20:27:20.621Z,15.68
2023-01-11T20:29:48.283Z,18.55
2023-01-11T20:32:39.140Z,11.45
2023-01-11T20:35:05.867Z,10.60
2023-01-11T20:37:33.510Z,9.63
2023-01-11T20:40:02.518Z,8.32
2023-01-11T20:42:31.919Z,13.13
2023-01-11T20:44:59.832Z,14.38
2023-01-11T20:47:28.438Z,13.85
2023-01-11T20:49:55.978Z,14.82
2023-01-11T20:52:23.446Z,15.20
2023-01-11T20:54:51.378Z,11.18
2023-01-11T20:57:18.660Z,8.25
2023-01-11T20:59:47.103Z,9.00
2023-01-11T21:02:14.370Z,9.82
2023-01-11T21:04:41.647Z,8.10
2023-01-11T21:07:08.988Z,9.75
2023-01-11T21:09:36.476Z,8.40
2023-01-11T21:12:04.113Z,9.52
2023-01-11T21:14:31.285Z,10.50
2023-01-11T21:16:58.779Z,19.15
2023-01-11T21:19:26.917Z,19.73
2023-01-11T21:21:54.242Z,31.45
2023-01-11T21:24:21.919Z,24.25
2023-01-11T21:26:49.235Z,19.20
2023-01-11T21:29:22.810Z,16.77
2023-01-11T21:34:19.151Z,14.68
2023-01-11T21:36:46.671Z,13.80
2023-01-11T21:39:15.674Z,13.13
2023-01-11T21:41:58.608Z,12.10
2023-01-11T21:44:33.847Z,11.82
2023-01-11T21:47:02.819Z,13.48
2023-01-11T21:49:31.183Z,14.60
2023-01-11T21:52:00.054Z,14.95
2023-01-11T21:54:27.625Z,12.18
2023-01-11T21:56:55.097Z,10.82
2023-01-11T21:59:22.793Z,9.85
2023-01-11T22:01:49.844Z,10.93
2023-01-11T22:04:19.710Z,10.80
2023-01-11T22:06:55.145Z,11.43
2023-01-11T22:09:27.489Z,13.07
2023-01-11T22:11:55.776Z,13.27
2023-01-11T22:14:30.877Z,12.57
2023-01-11T22:16:58.266Z,13.35
2023-01-11T22:19:25.637Z,12.20
2023-01-11T22:21:55.207Z,11.55
2023-01-11T22:24:22.901Z,14.90
2023-01-11T22:26:50.072Z,13.80
2023-01-11T22:29:17.612Z,13.25
2023-01-11T22:31:51.543Z,14.38
2023-01-11T22:34:19.810Z,15.88
2023-01-11T22:36:47.359Z,16.40
2023-01-11T22:39:17.406Z,16.92
2023-01-11T22:41:48.126Z,16.15
2023-01-11T22:44:16.279Z,18.27
2023-01-11T22:46:44.144Z,17.67
2023-01-11T22:49:12.050Z,19.52
2023-01-11T22:51:41.543Z,20.08
2023-01-11T22:54:09.240Z,18.83
2023-01-11T22:56:36.461Z,19.00
2023-01-11T22:59:04.028Z,19.02
2023-01-11T23:01:34.974Z,19.15
2023-01-11T23:04:04.370Z,19.40
2023-01-11T23:06:34.465Z,17.90
2023-01-11T23:09:02.630Z,18.98
2023-01-11T23:11:53.868Z,17.75
2023-01-11T23:14:21.825Z,16.95
2023-01-11T23:16:50.792Z,16.40
2023-01-11T23:19:20.654Z,16.95
2023-01-11T23:21:47.986Z,16.83
2023-01-11T23:24:17.611Z,15.20
2023-01-11T23:26:45.583Z,14.57
2023-01-11T23:29:13.471Z,14.88
2023-01-11T23:31:46.383Z,13.10
2023-01-11T23:34:14.937Z,12.23
2023-01-11T23:36:43.797Z,12.32
2023-01-11T23:39:16.529Z,11.80
2023-01-11T23:42:02.623Z,11.70
2023-01-11T23:44:31.998Z,10.35
2023-01-11T23:47:18.987Z,11.30
2023-01-11T23:49:46.242Z,10.20
2023-01-11T23:52:13.792Z,9.55
2023-01-11T23:54:43.541Z,9.65
2023-01-11T23:57:13.754Z,9.55
2023-01-11T23:59:42.085Z,10.95
